Time;durP1;ratioP1;P1;durP2;ratioP2;P2;SDS_P1;SDS_P2;PMS_P1;PMS_P2;Temp;Humidity;BMP_temperature;BMP_pressure;BME280_temperature;BME280_humidity;BME280_pressure;Samples;Min_cycle;Max_cycle;Signal;HPM_P1;HPM_P2
2022/12/12 00:04:27;;;;;;;11.90;7.43;;;4.10;87.90;;;;;;10749885;33;20056;-77
2022/12/12 00:10:29;;;;;;;15.15;9.90;;;4.10;87.80;;;;;;10749574;33;20028;-77
2022/12/12 00:16:32;;;;;;;10.23;6.62;;;4.10;87.80;;;;;;10752730;33;20020;-77
2022/12/12 00:22:34;;;;;;;11.40;9.32;;;4.00;87.50;;;;;;10755286;27;20084;-76
2022/12/12 00:28:36;;;;;;;13.40;10.00;;;4.00;87.70;;;;;;10752628;33;20059;-76
2022/12/12 00:34:38;;;;;;;15.80;12.52;;;4.20;87.80;;;;;;10751829;33;20051;-76
2022/12/12 00:40:40;;;;;;;14.07;9.27;;;4.20;87.60;;;;;;10752085;33;20051;-76
2022/12/12 00:46:42;;;;;;;9.77;7.05;;;4.10;87.50;;;;;;10752002;33;20021;-76
2022/12/12 00:52:44;;;;;;;8.65;6.70;;;4.20;87.80;;;;;;10751721;33;20059;-76
2022/12/12 00:58:47;;;;;;;8.80;6.30;;;4.50;87.90;;;;;;10751586;33;20051;-76
2022/12/12 01:04:49;;;;;;;9.35;6.75;;;4.80;87.30;;;;;;10738578;33;20055;-76
2022/12/12 01:10:52;;;;;;;10.35;7.78;;;4.80;87.30;;;;;;10751442;33;20425;-75
2022/12/12 01:16:54;;;;;;;10.15;8.70;;;4.90;87.20;;;;;;10751298;33;20308;-76
2022/12/12 01:22:56;;;;;;;13.02;10.18;;;5.20;86.90;;;;;;10738183;33;20402;-76
2022/12/12 01:28:58;;;;;;;12.10;8.88;;;5.50;86.30;;;;;;10750856;33;20028;-76
2022/12/12 01:35:01;;;;;;;10.63;8.77;;;5.80;86.50;;;;;;10753478;33;20059;-75
2022/12/12 01:41:03;;;;;;;12.32;8.73;;;6.00;86.00;;;;;;10757144;33;20040;-75
2022/12/12 01:47:05;;;;;;;13.27;9.40;;;6.00;85.50;;;;;;10753113;33;20018;-76
2022/12/12 01:53:08;;;;;;;9.93;7.12;;;6.00;85.30;;;;;;10756742;33;20086;-75
2022/12/12 01:59:15;;;;;;;8.80;5.80;;;6.20;85.50;;;;;;10743634;33;20055;-75
2022/12/12 02:05:40;;;;;;;13.80;8.30;;;6.10;84.90;;;;;;10756606;33;20017;-76
2022/12/12 02:11:47;;;;;;;9.73;7.20;;;5.90;84.50;;;;;;10756420;33;20017;-76
2022/12/12 02:18:08;;;;;;;10.88;7.43;;;5.80;84.40;;;;;;10756259;33;20043;-76
2022/12/12 02:24:28;;;;;;;11.38;7.07;;;5.90;84.50;;;;;;10755968;33;20043;-76
2022/12/12 02:30:47;;;;;;;9.55;5.97;;;5.80;84.40;;;;;;10755857;33;20043;-76
2022/12/12 02:37:08;;;;;;;8.03;6.30;;;5.70;84.20;;;;;;10754305;33;20055;-76
2022/12/12 02:43:33;;;;;;;6.57;4.90;;;5.20;83.60;;;;;;10755464;33;20039;-76
2022/12/12 02:49:44;;;;;;;11.35;7.47;;;4.80;84.90;;;;;;10755361;33;20051;-76
2022/12/12 02:55:48;;;;;;;7.93;5.70;;;4.80;85.30;;;;;;10754943;33;20028;-76
2022/12/12 03:02:31;;;;;;;9.23;5.97;;;4.90;85.00;;;;;;10754852;33;20028;-75
2022/12/12 03:08:36;;;;;;;9.98;6.12;;;5.20;84.90;;;;;;10830798;32;20058;-76
2022/12/12 03:15:05;;;;;;;12.25;8.43;;;5.20;84.50;;;;;;10829385;32;20036;-76
2022/12/12 03:21:20;;;;;;;9.10;6.20;;;5.40;84.10;;;;;;10827384;32;20027;-76
2022/12/12 03:27:44;;;;;;;7.45;4.85;;;5.40;83.70;;;;;;10829179;32;20032;-76
2022/12/12 03:33:55;;;;;;;9.50;5.07;;;5.40;83.60;;;;;;10826871;32;20032;-76
2022/12/12 03:40:07;;;;;;;7.65;5.30;;;5.40;83.40;;;;;;10828629;32;20346;-76
2022/12/12 03:46:22;;;;;;;10.63;8.65;;;5.30;83.20;;;;;;10758342;32;20055;-76
2022/12/12 03:52:37;;;;;;;9.32;6.43;;;5.50;83.40;;;;;;10753483;33;20330;-76
2022/12/12 03:58:48;;;;;;;10.07;7.18;;;5.70;83.60;;;;;;10752599;33;20025;-76
2022/12/12 04:05:10;;;;;;;8.65;6.40;;;5.80;83.20;;;;;;10753080;33;20021;-76
2022/12/12 04:18:10;;;;;;;10.35;6.65;;;5.80;82.60;;;;;;10752576;33;20021;-76
2022/12/12 04:24:35;;;;;;;8.55;4.80;;;5.50;82.60;;;;;;10752496;33;20021;-75
2022/12/12 04:30:38;;;;;;;10.48;7.18;;;5.00;82.70;;;;;;10754190;33;20425;-76
2022/12/12 04:36:41;;;;;;;10.68;6.68;;;4.90;83.80;;;;;;10752160;33;20055;-75
2022/12/12 04:42:53;;;;;;;10.10;7.12;;;5.10;83.30;;;;;;10752023;33;20350;-75
2022/12/12 04:49:13;;;;;;;9.60;6.40;;;4.90;83.20;;;;;;10738944;33;20047;-75
2022/12/12 04:55:34;;;;;;;;;;;5.10;83.30;;;;;;10752030;33;20029;-75
2022/12/12 05:01:54;;;;;;;9.93;6.55;;;5.20;82.70;;;;;;10751589;33;19928;-75
2022/12/12 05:08:15;;;;;;;7.30;5.50;;;5.30;82.30;;;;;;10751296;33;20016;-75
2022/12/12 05:14:18;;;;;;;10.85;7.45;;;5.30;82.10;;;;;;10738366;33;20029;-75
2022/12/12 05:20:20;;;;;;;10.05;6.70;;;5.00;82.40;;;;;;10751027;33;20020;-75
2022/12/12 05:26:29;;;;;;;11.45;8.52;;;5.10;82.50;;;;;;10750996;33;20029;-75
2022/12/12 05:32:32;;;;;;;;;;;5.30;82.20;;;;;;10738080;33;20025;-75
2022/12/12 05:38:34;;;;;;;9.43;6.57;;;5.50;81.60;;;;;;10750717;33;19927;-75
2022/12/12 05:44:36;;;;;;;8.50;5.87;;;5.40;81.40;;;;;;10737543;33;20067;-75
2022/12/12 05:50:38;;;;;;;11.15;7.65;;;5.20;81.60;;;;;;10750392;33;20098;-75
2022/12/12 05:56:40;;;;;;;9.40;7.18;;;4.90;82.00;;;;;;10737157;33;20415;-74
2022/12/12 06:02:44;;;;;;;11.60;9.60;;;5.10;82.20;;;;;;10749849;33;20032;-74
2022/12/12 06:08:48;;;;;;;15.88;10.18;;;5.20;81.70;;;;;;10736888;33;20056;-74
2022/12/12 06:14:50;;;;;;;15.00;10.48;;;5.40;81.40;;;;;;10749741;33;20051;-73
2022/12/12 06:21:04;;;;;;;11.35;8.98;;;5.30;81.10;;;;;;10750739;33;20350;-74
2022/12/12 06:27:06;;;;;;;16.23;12.57;;;5.40;81.10;;;;;;10755718;33;20029;-73
2022/12/12 06:33:08;;;;;;;12.55;10.65;;;5.40;80.70;;;;;;10742243;33;20068;-73
2022/12/12 06:39:12;;;;;;;12.48;8.65;;;5.50;80.50;;;;;;10755174;33;20033;-73
2022/12/12 06:45:14;;;;;;;11.35;8.10;;;5.50;80.30;;;;;;10754833;33;20055;-73
2022/12/12 06:51:20;;;;;;;10.85;7.93;;;5.50;80.10;;;;;;10755033;33;20024;-73
2022/12/12 06:57:23;;;;;;;16.20;10.95;;;5.60;79.80;;;;;;10750775;33;20036;-73
2022/12/12 07:03:25;;;;;;;11.10;8.57;;;5.30;79.90;;;;;;10753728;33;20067;-73
2022/12/12 07:09:27;;;;;;;12.40;9.48;;;5.40;80.20;;;;;;10741712;33;20029;-73
2022/12/12 07:15:29;;;;;;;13.25;9.20;;;5.30;80.10;;;;;;10752020;33;20028;-73
2022/12/12 07:21:31;;;;;;;12.73;9.60;;;5.30;80.20;;;;;;10749367;33;20028;-73
2022/12/12 07:27:33;;;;;;;11.70;7.65;;;5.40;80.00;;;;;;10753659;33;20448;-74
2022/12/12 07:33:36;;;;;;;10.75;7.53;;;5.10;80.20;;;;;;10749804;33;20036;-76
2022/12/12 07:39:38;;;;;;;12.73;9.75;;;4.80;81.00;;;;;;10753545;33;20055;-76
2022/12/12 07:45:43;;;;;;;14.63;10.63;;;4.40;81.20;;;;;;10740460;33;20033;-76
2022/12/12 07:51:45;;;;;;;26.08;19.45;;;4.20;82.40;;;;;;10753329;33;20021;-76
2022/12/12 07:57:47;;;;;;;21.58;13.32;;;4.60;82.40;;;;;;10752564;33;20033;-74
2022/12/12 08:03:52;;;;;;;30.33;18.42;;;5.00;82.10;;;;;;10753029;33;20438;-74
2022/12/12 08:09:54;;;;;;;25.05;19.87;;;5.20;81.80;;;;;;10752926;33;20391;-74
2022/12/12 08:15:56;;;;;;;23.10;14.05;;;5.50;82.20;;;;;;10752538;33;20055;-74
2022/12/12 08:21:58;;;;;;;19.33;12.10;;;5.90;82.10;;;;;;10423825;27;10651986;-74
2022/12/12 08:28:01;;;;;;;14.10;9.02;;;6.00;82.00;;;;;;10709113;33;20055;-74
2022/12/12 08:34:03;;;;;;;13.57;8.10;;;6.20;81.80;;;;;;10679809;33;20315;-74
2022/12/12 08:40:07;;;;;;;16.83;10.73;;;5.70;82.00;;;;;;10678944;33;20435;-74
2022/12/12 08:46:10;;;;;;;13.10;7.65;;;5.70;82.90;;;;;;10679257;33;20045;-76
2022/12/12 08:52:14;;;;;;;12.30;8.95;;;6.00;82.50;;;;;;10678853;33;20017;-76
2022/12/12 08:58:19;;;;;;;10.95;7.57;;;6.10;82.30;;;;;;10679280;33;20080;-76
2022/12/12 09:04:21;;;;;;;8.60;5.87;;;6.20;82.40;;;;;;10679246;33;20022;-76
2022/12/12 09:10:26;;;;;;;11.00;6.70;;;6.50;82.30;;;;;;10679008;33;20060;-76
2022/12/12 09:16:29;;;;;;;10.95;7.47;;;6.60;82.50;;;;;;10678985;33;20441;-74
2022/12/12 09:22:31;;;;;;;9.98;6.40;;;6.70;82.90;;;;;;10710776;33;20048;-75
2022/12/12 09:28:33;;;;;;;6.22;4.37;;;6.60;83.80;;;;;;10714682;33;20401;-75
2022/12/12 09:34:37;;;;;;;6.53;4.70;;;6.50;85.10;;;;;;10711168;33;20048;-76
2022/12/12 09:40:53;;;;;;;6.43;3.85;;;6.70;85.30;;;;;;10714464;33;20056;-75
2022/12/12 09:47:04;;;;;;;7.32;5.18;;;6.70;85.40;;;;;;10714041;33;20025;-76
2022/12/12 09:53:14;;;;;;;6.35;4.05;;;6.70;85.20;;;;;;10714088;33;20026;-75
2022/12/12 09:59:19;;;;;;;8.35;4.82;;;6.90;85.30;;;;;;10720231;33;20017;-75
2022/12/12 10:05:56;;;;;;;7.32;5.60;;;7.00;85.20;;;;;;10717761;33;20047;-75
2022/12/12 10:12:01;;;;;;;5.05;3.25;;;7.20;85.40;;;;;;10715869;33;20033;-75
2022/12/12 10:18:08;;;;;;;6.10;3.72;;;7.20;85.10;;;;;;10715617;33;20037;-76
2022/12/12 10:24:32;;;;;;;8.13;4.07;;;7.20;84.80;;;;;;10719341;33;20047;-76
2022/12/12 10:30:52;;;;;;;7.72;4.57;;;7.20;85.10;;;;;;10716021;33;20016;-76
2022/12/12 10:37:24;;;;;;;6.12;3.50;;;7.40;85.10;;;;;;10718518;33;20037;-76
2022/12/12 10:44:13;;;;;;;11.85;5.20;;;7.20;85.30;;;;;;10717455;33;20395;-76
2022/12/12 10:50:33;;;;;;;5.07;3.10;;;7.40;85.60;;;;;;10677779;32;20029;-76
2022/12/12 10:56:57;;;;;;;6.93;4.78;;;7.50;85.70;;;;;;10675753;32;20048;-77
2022/12/12 11:03:11;;;;;;;6.70;4.20;;;7.60;85.80;;;;;;10674248;32;20072;-77
2022/12/12 11:09:19;;;;;;;8.07;4.95;;;7.50;86.20;;;;;;10674928;32;20033;-77
2022/12/12 11:15:38;;;;;;;4.43;2.92;;;7.60;86.40;;;;;;10662715;33;20041;-77
2022/12/12 11:21:41;;;;;;;8.55;4.32;;;8.00;86.30;;;;;;10677947;33;20055;-78
2022/12/12 11:27:45;;;;;;;6.15;3.72;;;8.50;85.60;;;;;;10712739;33;20103;-78
2022/12/12 11:33:57;;;;;;;6.10;4.05;;;8.30;85.40;;;;;;10717683;33;20029;-78
2022/12/12 11:40:00;;;;;;;4.95;2.75;;;8.00;86.10;;;;;;10717582;33;20030;-77
2022/12/12 11:46:14;;;;;;;7.35;4.50;;;8.20;86.10;;;;;;10716968;33;20029;-77
2022/12/12 11:52:39;;;;;;;7.37;3.70;;;8.40;86.20;;;;;;10717381;33;20013;-78
2022/12/12 11:59:18;;;;;;;7.40;4.15;;;8.70;85.80;;;;;;10714071;33;20037;-78
2022/12/12 12:05:53;;;;;;;4.85;3.47;;;8.80;85.30;;;;;;10785669;33;20041;-78
2022/12/12 12:12:18;;;;;;;7.30;4.03;;;8.70;85.40;;;;;;10774939;32;20028;-77
2022/12/12 12:18:58;;;;;;;5.50;2.78;;;8.70;86.00;;;;;;10760575;33;20335;-77
2022/12/12 12:25:07;;;;;;;5.03;2.93;;;8.90;86.00;;;;;;10753487;33;20036;-77
2022/12/12 12:31:46;;;;;;;5.35;3.50;;;9.10;85.30;;;;;;10753357;33;20017;-77
2022/12/12 12:38:23;;;;;;;8.30;4.70;;;9.20;85.10;;;;;;10749070;33;20033;-78
2022/12/12 12:44:54;;;;;;;5.55;3.72;;;9.10;85.30;;;;;;10711886;33;20040;-77
2022/12/12 12:51:14;;;;;;;5.53;3.25;;;9.20;85.20;;;;;;10726713;32;20025;-77
2022/12/12 12:57:33;;;;;;;5.32;2.90;;;9.20;85.30;;;;;;10711584;33;20047;-77
2022/12/12 13:04:02;;;;;;;5.68;2.95;;;9.20;85.50;;;;;;10715404;33;20040;-77
2022/12/12 13:10:26;;;;;;;4.85;3.37;;;9.30;85.50;;;;;;10715334;33;20037;-78
2022/12/12 13:16:31;;;;;;;4.45;2.17;;;9.60;85.40;;;;;;10715030;33;20029;-77
2022/12/12 13:23:07;;;;;;;5.82;3.62;;;9.70;85.20;;;;;;10710806;33;20036;-77
2022/12/12 13:29:53;;;;;;;3.37;2.05;;;9.90;85.10;;;;;;10718376;33;20035;-77
2022/12/12 13:36:20;;;;;;;4.45;2.80;;;10.00;85.20;;;;;;10726758;33;20072;-77
2022/12/12 13:42:22;;;;;;;4.28;2.65;;;9.90;85.80;;;;;;10726502;33;20067;-76
2022/12/12 13:48:28;;;;;;;3.53;2.22;;;10.10;85.60;;;;;;10726382;33;20040;-76
2022/12/12 13:54:30;;;;;;;5.20;3.08;;;10.20;85.40;;;;;;10726360;33;20476;-73
2022/12/12 14:00:38;;;;;;;4.72;3.03;;;10.00;85.90;;;;;;10726152;33;20017;-74
2022/12/12 14:06:41;;;;;;;4.28;2.42;;;10.00;85.90;;;;;;10725679;33;20057;-74
2022/12/12 14:12:43;;;;;;;6.72;3.03;;;10.30;85.70;;;;;;10726009;33;20482;-74
2022/12/12 14:18:49;;;;;;;5.07;2.75;;;10.80;84.60;;;;;;10725710;33;20060;-73
2022/12/12 14:25:02;;;;;;;3.47;2.00;;;11.30;83.50;;;;;;10725666;33;20013;-73
2022/12/12 14:31:14;;;;;;;5.22;2.83;;;11.90;82.20;;;;;;10747130;32;20059;-73
2022/12/12 14:37:54;;;;;;;3.70;2.20;;;11.90;82.10;;;;;;10725195;33;20044;-73
2022/12/12 14:43:59;;;;;;;3.50;2.07;;;11.60;82.70;;;;;;10747602;33;20075;-74
2022/12/12 14:50:10;;;;;;;7.87;3.70;;;11.00;83.80;;;;;;10757064;33;20028;-74
2022/12/12 14:56:30;;;;;;;6.40;4.00;;;10.50;84.70;;;;;;10757022;33;20037;-74
2022/12/12 15:02:37;;;;;;;4.87;3.28;;;10.20;85.30;;;;;;10756627;33;20391;-74
2022/12/12 15:08:40;;;;;;;5.35;3.85;;;10.00;85.70;;;;;;10757228;33;20086;-73
2022/12/12 15:14:48;;;;;;;5.82;4.45;;;9.70;86.10;;;;;;10756914;33;20040;-74
2022/12/12 15:20:56;;;;;;;8.38;4.75;;;9.50;86.50;;;;;;10695539;33;20052;-74
2022/12/12 15:26:59;;;;;;;10.43;6.28;;;9.30;86.80;;;;;;10681032;33;20095;-74
2022/12/12 15:33:16;;;;;;;8.13;6.20;;;9.20;87.00;;;;;;10681533;33;20075;-74
2022/12/12 15:39:21;;;;;;;10.07;6.75;;;9.00;87.00;;;;;;10680990;33;20037;-73
2022/12/12 15:45:32;;;;;;;10.40;6.93;;;8.90;87.10;;;;;;10681309;33;20048;-74
2022/12/12 15:51:34;;;;;;;12.18;8.82;;;8.70;87.10;;;;;;10676235;33;20064;-73
2022/12/12 15:57:48;;;;;;;11.95;7.12;;;8.60;87.00;;;;;;10680853;33;20025;-74
2022/12/12 16:04:01;;;;;;;18.62;10.27;;;8.40;86.90;;;;;;10679738;33;20032;-74
2022/12/12 16:10:23;;;;;;;14.05;8.32;;;8.30;86.90;;;;;;10676789;33;20038;-74
2022/12/12 16:16:36;;;;;;;12.13;9.25;;;8.20;86.80;;;;;;10680678;33;20348;-73
2022/12/12 16:22:46;;;;;;;11.60;8.65;;;8.00;86.70;;;;;;10715562;27;20032;-74
2022/12/12 16:28:48;;;;;;;15.48;11.63;;;7.80;86.70;;;;;;10752652;33;20051;-74
2022/12/12 16:34:50;;;;;;;17.98;11.95;;;7.80;86.60;;;;;;10752801;33;20090;-74
2022/12/12 16:40:55;;;;;;;14.40;10.50;;;7.70;86.80;;;;;;10750625;32;20025;-74
2022/12/12 16:46:56;;;;;;;13.48;8.52;;;7.60;86.70;;;;;;10749971;33;20051;-74
2022/12/12 16:52:58;;;;;;;10.15;7.25;;;7.60;86.70;;;;;;10738965;33;20326;-74
2022/12/12 16:59:04;;;;;;;16.60;10.10;;;7.30;86.60;;;;;;10738669;33;20060;-74
2022/12/12 17:05:16;;;;;;;12.60;9.27;;;7.20;86.30;;;;;;10750992;33;20013;-74
2022/12/12 17:11:18;;;;;;;11.10;9.00;;;7.20;86.50;;;;;;10738011;33;20032;-74
2022/12/12 17:17:20;;;;;;;16.05;11.50;;;7.30;86.60;;;;;;10750911;33;20082;-73
2022/12/12 17:23:22;;;;;;;13.25;9.70;;;7.30;86.70;;;;;;10750608;33;20068;-74
2022/12/12 17:29:24;;;;;;;11.18;8.63;;;7.20;86.40;;;;;;10747791;33;20433;-74
2022/12/12 17:35:27;;;;;;;17.30;12.65;;;7.10;86.10;;;;;;10750556;33;20055;-73
2022/12/12 17:41:28;;;;;;;18.10;15.75;;;7.00;85.90;;;;;;10749343;33;20028;-74
2022/12/12 17:47:32;;;;;;;14.73;12.02;;;6.90;85.90;;;;;;10750564;33;20075;-74
2022/12/12 17:53:36;;;;;;;15.38;11.88;;;6.90;85.70;;;;;;10750438;33;20017;-74
2022/12/12 17:59:39;;;;;;;13.45;10.80;;;6.70;85.50;;;;;;10749939;33;20033;-74
2022/12/12 18:05:42;;;;;;;12.52;9.23;;;6.70;85.60;;;;;;10736363;33;20062;-73
2022/12/12 18:11:44;;;;;;;15.02;10.68;;;6.70;85.80;;;;;;10749696;32;20323;-74
2022/12/12 18:17:46;;;;;;;15.93;12.90;;;6.70;85.50;;;;;;10753226;33;20021;-74
2022/12/12 18:23:48;;;;;;;17.20;13.18;;;6.50;85.20;;;;;;10755989;33;20047;-74
2022/12/12 18:29:51;;;;;;;17.02;13.13;;;6.50;85.70;;;;;;10755945;33;20448;-73
2022/12/12 18:36:04;;;;;;;18.98;14.00;;;6.60;85.60;;;;;;10755573;33;20358;-74
2022/12/12 18:42:06;;;;;;;15.55;10.85;;;6.50;85.40;;;;;;10742736;33;20039;-74
2022/12/12 18:48:08;;;;;;;15.40;10.95;;;6.40;84.90;;;;;;10755187;33;20292;-74
2022/12/12 18:54:13;;;;;;;18.33;13.02;;;6.20;84.90;;;;;;10755314;33;20078;-73
2022/12/12 19:00:15;;;;;;;20.02;14.60;;;6.20;84.70;;;;;;10755119;33;20021;-73
2022/12/12 19:06:20;;;;;;;20.30;16.62;;;6.30;84.80;;;;;;10742124;33;20039;-74
2022/12/12 19:12:22;;;;;;;16.77;12.40;;;6.40;85.00;;;;;;10740073;33;20055;-74
2022/12/12 19:18:24;;;;;;;18.50;14.52;;;6.20;84.70;;;;;;10754589;33;20043;-74
2022/12/12 19:24:26;;;;;;;17.00;13.00;;;6.20;84.70;;;;;;10754406;33;20052;-74
2022/12/12 19:30:31;;;;;;;26.75;19.67;;;6.20;84.70;;;;;;10751340;33;20029;-74
2022/12/12 19:36:34;;;;;;;21.48;16.42;;;6.10;84.70;;;;;;10753932;33;20059;-74
2022/12/12 19:42:36;;;;;;;21.35;16.62;;;6.10;84.90;;;;;;10753122;33;20051;-74
2022/12/12 19:48:39;;;;;;;21.42;17.77;;;6.10;84.60;;;;;;10751046;33;20028;-74
2022/12/12 19:54:41;;;;;;;21.15;18.23;;;6.10;84.40;;;;;;10751460;33;20052;-74
2022/12/12 20:00:42;;;;;;;19.83;14.20;;;6.10;84.40;;;;;;10753361;33;20387;-73
2022/12/12 20:06:47;;;;;;;22.65;16.25;;;5.90;84.30;;;;;;10753233;33;20043;-74
2022/12/12 20:12:48;;;;;;;22.85;14.95;;;6.00;84.50;;;;;;10748697;33;20071;-73
2022/12/12 20:18:52;;;;;;;14.68;12.00;;;5.90;84.30;;;;;;10740013;33;20056;-73
2022/12/12 20:24:54;;;;;;;24.58;17.37;;;5.90;84.20;;;;;;10752746;33;20020;-74
2022/12/12 20:31:15;;;;;;;22.13;15.38;;;5.80;84.00;;;;;;10752702;33;20319;-74
2022/12/12 20:37:17;;;;;;;20.88;15.05;;;5.70;84.20;;;;;;10751971;33;20020;-74
2022/12/12 20:43:19;;;;;;;16.48;14.65;;;5.70;84.10;;;;;;10752107;33;20025;-74
2022/12/12 20:49:22;;;;;;;26.40;22.30;;;5.70;84.20;;;;;;10752145;33;20057;-74
2022/12/12 20:55:26;;;;;;;16.10;12.95;;;5.70;84.50;;;;;;10751908;33;20028;-74
2022/12/12 21:01:30;;;;;;;21.92;15.68;;;5.70;84.30;;;;;;10751687;33;20067;-76
2022/12/12 21:07:33;;;;;;;22.77;18.37;;;5.70;84.20;;;;;;10747511;33;20025;-76
2022/12/12 21:13:35;;;;;;;26.95;22.02;;;5.70;84.70;;;;;;10751528;33;20346;-76
2022/12/12 21:19:38;;;;;;;19.83;15.15;;;5.60;84.40;;;;;;10751330;33;20020;-76
2022/12/12 21:25:40;;;;;;;18.62;14.10;;;5.50;84.00;;;;;;10750997;33;20021;-76
2022/12/12 21:31:43;;;;;;;24.52;17.00;;;5.50;84.70;;;;;;10751161;33;20039;-76
2022/12/12 21:37:45;;;;;;;24.00;18.60;;;5.50;84.80;;;;;;10731855;33;20433;-76
2022/12/12 21:43:49;;;;;;;25.62;18.30;;;5.50;85.00;;;;;;10750784;33;20044;-77
2022/12/12 21:49:51;;;;;;;25.73;18.50;;;5.50;84.90;;;;;;10752099;33;20052;-76
2022/12/12 21:55:53;;;;;;;19.80;15.60;;;5.50;84.80;;;;;;10752961;33;20055;-76
2022/12/12 22:01:57;;;;;;;19.05;13.32;;;5.50;84.90;;;;;;10756879;33;20063;-77
2022/12/12 22:07:59;;;;;;;30.00;18.00;;;5.30;84.80;;;;;;10756636;33;20021;-76
2022/12/12 22:14:01;;;;;;;20.90;14.87;;;5.20;84.70;;;;;;10756586;33;20373;-76
2022/12/12 22:20:04;;;;;;;19.60;13.13;;;5.20;84.50;;;;;;10756252;33;20425;-76
2022/12/12 22:26:21;;;;;;;15.80;11.85;;;5.20;84.90;;;;;;10756153;33;20025;-76
2022/12/12 22:32:23;;;;;;;16.65;11.85;;;5.30;85.30;;;;;;10755525;33;20024;-76
2022/12/12 22:38:25;;;;;;;13.38;9.73;;;5.30;85.40;;;;;;10755867;33;20047;-76
2022/12/12 22:44:28;;;;;;;15.00;10.73;;;5.30;85.90;;;;;;10739771;33;20043;-76
2022/12/12 22:50:30;;;;;;;15.60;9.68;;;5.20;86.40;;;;;;10755375;33;20029;-76
2022/12/12 22:56:35;;;;;;;12.77;10.60;;;5.20;86.60;;;;;;10755112;33;20334;-73
2022/12/12 23:02:37;;;;;;;14.38;10.65;;;5.20;86.30;;;;;;10754568;33;20354;-73
2022/12/12 23:08:40;;;;;;;13.05;8.80;;;5.30;86.10;;;;;;10754971;33;20017;-73
2022/12/12 23:14:42;;;;;;;10.88;8.25;;;5.30;86.00;;;;;;10754626;33;20021;-73
2022/12/12 23:20:45;;;;;;;11.50;6.80;;;5.20;86.30;;;;;;10754567;33;20046;-73
2022/12/12 23:26:49;;;;;;;12.37;7.62;;;5.10;86.40;;;;;;10754407;33;20058;-73
2022/12/12 23:32:51;;;;;;;8.13;6.18;;;5.20;86.60;;;;;;10754268;33;20044;-73
2022/12/12 23:38:59;;;;;;;10.65;8.20;;;5.20;86.80;;;;;;10740982;33;20047;-73
2022/12/12 23:45:02;;;;;;;9.80;6.40;;;5.20;86.70;;;;;;10753967;33;20052;-73
2022/12/12 23:51:04;;;;;;;12.80;7.50;;;5.10;86.80;;;;;;10753758;33;20387;-73
2022/12/12 23:57:06;;;;;;;9.32;6.12;;;5.20;87.10;;;;;;10753418;33;20029;-73
